createdAt,value
2019-06-20T00:00:52.117Z,99.90
2019-06-20T00:03:43.495Z,99.90
2019-06-20T00:06:35.184Z,99.90
2019-06-20T00:09:26.583Z,99.90
2019-06-20T00:12:17.915Z,99.90
2019-06-20T00:15:09.375Z,99.90
2019-06-20T00:18:00.793Z,99.90
2019-06-20T00:20:52.325Z,99.90
2019-06-20T00:23:43.799Z,99.90
2019-06-20T00:26:35.116Z,99.90
2019-06-20T00:29:26.912Z,99.90
2019-06-20T00:32:18.266Z,99.90
2019-06-20T00:35:10.052Z,99.90
2019-06-20T00:38:01.816Z,99.90
2019-06-20T00:40:53.076Z,99.90
2019-06-20T00:43:44.341Z,99.90
2019-06-20T00:46:35.840Z,99.90
2019-06-20T00:49:27.217Z,99.90
2019-06-20T00:52:18.814Z,99.90
2019-06-20T00:55:10.652Z,99.90
2019-06-20T00:58:02.279Z,99.90
2019-06-20T01:00:54.087Z,99.90
2019-06-20T01:03:47.533Z,99.90
2019-06-20T01:06:39.068Z,99.90
2019-06-20T01:09:30.323Z,99.90
2019-06-20T01:12:21.936Z,99.90
2019-06-20T01:15:15.170Z,99.90
2019-06-20T01:18:07.728Z,99.90
2019-06-20T01:21:00.255Z,99.90
2019-06-20T01:23:51.871Z,99.90
2019-06-20T01:26:43.464Z,99.90
2019-06-20T01:29:34.830Z,99.90
2019-06-20T01:32:26.347Z,99.90
2019-06-20T01:35:18.427Z,99.90
2019-06-20T01:38:10.117Z,99.90
2019-06-20T01:41:05.855Z,99.90
2019-06-20T01:43:54.766Z,99.90
2019-06-20T01:46:46.218Z,99.90
2019-06-20T01:49:37.866Z,99.90
2019-06-20T01:52:29.736Z,99.90
2019-06-20T01:55:21.394Z,99.90
2019-06-20T01:58:13.206Z,99.90
2019-06-20T02:01:05.546Z,99.90
2019-06-20T02:03:56.984Z,99.90
2019-06-20T02:06:48.516Z,99.90
2019-06-20T02:09:40.111Z,99.90
2019-06-20T02:12:31.733Z,99.90
2019-06-20T02:15:23.103Z,99.90
2019-06-20T02:18:14.534Z,99.90
2019-06-20T02:21:06.897Z,99.90
2019-06-20T02:23:59.589Z,99.90
2019-06-20T02:26:50.903Z,99.90
2019-06-20T02:29:42.214Z,99.90
2019-06-20T02:32:33.839Z,99.90
2019-06-20T02:35:25.609Z,99.90
2019-06-20T02:38:17.168Z,99.90
2019-06-20T02:41:08.719Z,99.90
2019-06-20T02:44:00.497Z,99.90
2019-06-20T02:46:52.997Z,99.90
2019-06-20T02:49:44.513Z,99.90
2019-06-20T02:52:35.971Z,99.90
2019-06-20T02:55:27.760Z,99.90
2019-06-20T02:58:19.485Z,99.90
2019-06-20T03:01:11.735Z,99.90
2019-06-20T03:04:03.487Z,99.90
2019-06-20T03:06:55.073Z,99.90
2019-06-20T03:09:46.729Z,99.90
2019-06-20T03:12:39.232Z,99.90
2019-06-20T03:15:30.848Z,99.90
2019-06-20T03:18:22.736Z,99.90
2019-06-20T03:21:14.139Z,99.90
2019-06-20T03:24:05.895Z,99.90
2019-06-20T03:26:57.463Z,99.90
2019-06-20T03:29:48.876Z,99.90
2019-06-20T03:32:40.447Z,99.90
2019-06-20T03:35:32.238Z,99.90
2019-06-20T03:38:24.176Z,99.90
2019-06-20T03:41:16.622Z,99.90
2019-06-20T03:44:08.484Z,99.90
2019-06-20T03:47:00.035Z,99.90
2019-06-20T03:49:51.528Z,99.90
2019-06-20T03:52:42.954Z,99.90
2019-06-20T03:55:34.587Z,99.90
2019-06-20T03:58:25.961Z,99.90
2019-06-20T04:01:17.582Z,99.90
2019-06-20T04:04:09.194Z,99.90
2019-06-20T04:07:01.025Z,99.90
2019-06-20T04:09:52.349Z,99.90
2019-06-20T04:12:43.981Z,99.90
2019-06-20T04:15:35.627Z,99.90
2019-06-20T04:18:26.912Z,99.90
2019-06-20T04:21:18.267Z,99.90
2019-06-20T04:24:09.614Z,99.90
2019-06-20T04:27:01.425Z,99.90
2019-06-20T04:29:53.691Z,99.90
2019-06-20T04:32:45.341Z,99.90
2019-06-20T04:35:36.667Z,99.90
2019-06-20T04:38:28.194Z,99.90
2019-06-20T04:41:19.920Z,99.90
2019-06-20T04:44:11.491Z,99.90
2019-06-20T04:47:08.468Z,99.90
2019-06-20T04:50:00.031Z,99.90
2019-06-20T04:52:51.683Z,99.90
2019-06-20T04:55:43.290Z,99.90
2019-06-20T04:58:34.873Z,99.90
2019-06-20T05:01:26.559Z,99.90
2019-06-20T05:04:17.768Z,99.90
2019-06-20T05:07:18.784Z,99.90
2019-06-20T05:10:10.478Z,99.90
2019-06-20T05:13:02.035Z,99.90
2019-06-20T05:15:53.619Z,99.90
2019-06-20T05:18:45.204Z,99.90
2019-06-20T05:21:36.975Z,99.90
2019-06-20T05:24:28.549Z,99.90
2019-06-20T05:27:20.067Z,99.90
2019-06-20T05:30:12.405Z,99.90
2019-06-20T05:33:03.970Z,99.90
2019-06-20T05:35:55.300Z,99.90
2019-06-20T05:38:46.985Z,99.90
2019-06-20T05:41:39.236Z,99.90
2019-06-20T05:44:30.503Z,99.90
2019-06-20T05:47:21.809Z,99.90
2019-06-20T05:50:14.280Z,99.90
2019-06-20T05:53:05.960Z,99.90
2019-06-20T05:55:57.629Z,99.90
2019-06-20T05:58:49.317Z,99.90
2019-06-20T06:01:40.837Z,99.90
2019-06-20T06:04:32.770Z,99.90
2019-06-20T06:07:24.060Z,99.90
2019-06-20T06:10:16.591Z,99.90
2019-06-20T06:13:08.310Z,99.90
2019-06-20T06:16:00.303Z,99.90
2019-06-20T06:18:52.183Z,99.90
2019-06-20T06:21:43.717Z,99.90
2019-06-20T06:24:35.117Z,99.90
2019-06-20T06:27:26.383Z,99.90
2019-06-20T06:30:18.499Z,99.90
2019-06-20T06:33:10.096Z,99.90
2019-06-20T06:36:01.724Z,99.90
2019-06-20T06:38:52.967Z,99.90
2019-06-20T06:41:45.173Z,99.90
2019-06-20T06:44:36.852Z,99.90
2019-06-20T06:47:28.439Z,99.90
2019-06-20T06:50:20.165Z,99.90
2019-06-20T06:53:11.610Z,99.90
2019-06-20T06:56:03.312Z,99.90
2019-06-20T06:58:54.660Z,99.90
2019-06-20T07:01:46.252Z,99.90
2019-06-20T07:04:37.709Z,99.90
2019-06-20T07:07:29.060Z,99.90
2019-06-20T07:10:21.172Z,99.90
2019-06-20T07:13:12.520Z,99.90
2019-06-20T07:16:03.793Z,99.90
2019-06-20T07:18:55.287Z,99.90
2019-06-20T07:21:46.670Z,99.90
2019-06-20T07:24:37.851Z,99.90
2019-06-20T07:27:29.131Z,99.90
2019-06-20T07:30:20.728Z,99.90
2019-06-20T07:33:12.183Z,99.90
2019-06-20T07:36:04.286Z,99.90
2019-06-20T07:38:56.376Z,99.90
2019-06-20T07:41:47.616Z,99.90
2019-06-20T07:44:39.088Z,99.90
2019-06-20T07:47:30.374Z,99.90
2019-06-20T07:50:21.610Z,99.90
2019-06-20T07:53:12.870Z,99.90
2019-06-20T07:56:04.136Z,99.90
2019-06-20T07:58:56.295Z,99.90
2019-06-20T08:01:47.586Z,99.90
2019-06-20T08:04:38.783Z,99.90
2019-06-20T08:07:32.377Z,99.90
2019-06-20T08:10:25.387Z,99.90
2019-06-20T08:13:16.785Z,99.90
2019-06-20T08:16:08.047Z,99.90
2019-06-20T08:18:59.508Z,99.90
2019-06-20T08:21:51.591Z,99.90
2019-06-20T08:24:43.046Z,99.90
2019-06-20T08:27:53.470Z,99.90
2019-06-20T08:30:45.500Z,99.90
2019-06-20T08:33:37.065Z,99.90
2019-06-20T08:36:29.021Z,99.90
2019-06-20T08:39:21.042Z,99.90
2019-06-20T08:42:12.723Z,99.90
2019-06-20T08:45:04.128Z,99.90
2019-06-20T08:47:56.526Z,99.90
2019-06-20T08:50:48.434Z,99.90
2019-06-20T08:53:39.720Z,99.90
2019-06-20T08:56:31.069Z,99.90
2019-06-20T08:59:24.703Z,99.90
2019-06-20T09:02:15.428Z,99.90
2019-06-20T09:05:07.276Z,99.90
2019-06-20T09:10:54.108Z,99.90
2019-06-20T09:13:45.729Z,99.90
2019-06-20T09:16:37.396Z,99.90
2019-06-20T09:19:29.548Z,99.90
2019-06-20T09:22:21.191Z,99.90
2019-06-20T09:25:12.982Z,99.90
2019-06-20T09:28:04.789Z,99.90
2019-06-20T09:30:57.118Z,99.90
2019-06-20T09:33:48.497Z,99.90
2019-06-20T09:36:40.046Z,99.90
2019-06-20T09:39:31.419Z,99.90
2019-06-20T09:42:23.146Z,99.90
2019-06-20T09:45:15.607Z,99.90
2019-06-20T09:48:07.149Z,99.90
2019-06-20T09:50:58.706Z,99.90
2019-06-20T09:53:51.875Z,99.90
2019-06-20T09:56:46.499Z,99.90
2019-06-20T09:59:36.469Z,99.90
2019-06-20T10:02:27.788Z,99.90
2019-06-20T10:05:19.578Z,99.90
2019-06-20T10:08:10.963Z,99.00
2019-06-20T10:11:02.467Z,98.70
2019-06-20T10:13:54.271Z,97.80
2019-06-20T10:16:50.315Z,99.60
2019-06-20T10:19:38.852Z,99.30
2019-06-20T10:22:30.165Z,95.60
2019-06-20T10:25:21.495Z,93.90
2019-06-20T10:28:12.829Z,92.60
2019-06-20T10:31:04.097Z,91.70
2019-06-20T10:33:56.828Z,91.20
2019-06-20T10:36:50.104Z,95.40
2019-06-20T10:39:41.750Z,95.10
2019-06-20T10:42:33.304Z,98.00
2019-06-20T10:45:26.452Z,94.50
2019-06-20T10:48:17.991Z,91.30
2019-06-20T10:51:26.960Z,89.20
2019-06-20T10:54:18.783Z,91.50
2019-06-20T10:57:10.275Z,87.60
2019-06-20T11:00:02.759Z,84.00
2019-06-20T11:02:56.478Z,84.20
2019-06-20T11:05:48.252Z,85.10
2019-06-20T11:08:41.730Z,84.00
2019-06-20T11:11:33.711Z,91.10
2019-06-20T11:14:25.054Z,90.00
2019-06-20T11:17:16.629Z,93.10
2019-06-20T11:20:09.009Z,85.10
2019-06-20T11:23:00.503Z,85.20
2019-06-20T11:25:51.919Z,80.50
2019-06-20T11:28:44.578Z,80.30
2019-06-20T11:31:37.632Z,81.90
2019-06-20T11:34:30.176Z,86.60
2019-06-20T11:37:22.186Z,83.00
2019-06-20T11:40:14.217Z,79.90
2019-06-20T11:43:05.840Z,79.60
2019-06-20T11:45:57.303Z,76.00
2019-06-20T11:48:49.428Z,78.60
2019-06-20T11:51:41.841Z,78.10
2019-06-20T11:54:34.490Z,77.10
2019-06-20T11:57:26.091Z,78.10
2019-06-20T12:00:17.816Z,81.70
2019-06-20T12:03:09.114Z,81.70
2019-06-20T12:06:00.398Z,82.50
2019-06-20T12:08:52.316Z,85.00
2019-06-20T12:11:44.537Z,85.40
2019-06-20T12:14:36.317Z,86.00
2019-06-20T12:17:27.696Z,84.70
2019-06-20T12:20:19.737Z,82.60
2019-06-20T12:23:11.394Z,85.90
2019-06-20T12:26:02.952Z,87.40
2019-06-20T12:28:54.114Z,88.90
2019-06-20T12:31:45.922Z,89.50
2019-06-20T12:34:38.816Z,91.20
2019-06-20T12:37:30.584Z,87.20
2019-06-20T12:40:22.631Z,82.50
2019-06-20T12:43:15.718Z,75.10
2019-06-20T12:46:07.351Z,73.40
2019-06-20T12:48:58.713Z,69.90
2019-06-20T12:51:49.978Z,74.00
2019-06-20T12:54:43.311Z,72.00
2019-06-20T12:57:34.753Z,67.90
2019-06-20T13:00:26.955Z,67.60
2019-06-20T13:03:18.530Z,64.50
2019-06-20T13:06:10.251Z,66.10
2019-06-20T13:09:01.967Z,70.90
2019-06-20T13:11:55.166Z,68.50
2019-06-20T13:14:47.581Z,62.30
2019-06-20T13:17:40.818Z,61.30
2019-06-20T13:20:32.289Z,62.40
2019-06-20T13:23:23.629Z,64.80
2019-06-20T13:26:15.141Z,67.30
2019-06-20T13:29:06.665Z,62.90
2019-06-20T13:32:03.900Z,65.90
2019-06-20T13:34:51.312Z,66.00
2019-06-20T13:37:43.888Z,68.70
2019-06-20T13:40:36.508Z,68.70
2019-06-20T13:43:28.035Z,69.90
2019-06-20T13:46:20.013Z,74.20
2019-06-20T13:49:12.531Z,71.80
2019-06-20T13:52:03.863Z,71.40
2019-06-20T13:54:56.149Z,68.40
2019-06-20T13:57:49.263Z,72.30
2019-06-20T14:00:42.807Z,67.20
2019-06-20T14:03:34.195Z,68.70
2019-06-20T14:06:25.737Z,67.50
2019-06-20T14:09:17.313Z,65.40
2019-06-20T14:12:08.504Z,62.80
2019-06-20T14:14:59.930Z,61.60
2019-06-20T14:17:51.475Z,63.30
2019-06-20T14:20:43.636Z,62.20
2019-06-20T14:23:36.580Z,63.70
2019-06-20T14:26:28.331Z,62.10
2019-06-20T14:29:19.984Z,63.80
2019-06-20T14:32:21.801Z,64.60
2019-06-20T14:35:04.436Z,63.50
2019-06-20T14:37:56.083Z,64.80
2019-06-20T14:40:48.228Z,61.60
2019-06-20T14:43:39.905Z,64.80
2019-06-20T14:46:31.319Z,64.70
2019-06-20T14:49:24.858Z,64.20
2019-06-20T14:52:16.413Z,67.20
2019-06-20T14:55:08.743Z,65.20
2019-06-20T14:58:00.483Z,66.40
2019-06-20T15:00:52.226Z,64.20
2019-06-20T15:03:45.571Z,64.70
2019-06-20T15:06:36.796Z,66.10
2019-06-20T15:09:28.144Z,64.60
2019-06-20T15:12:19.678Z,63.20
2019-06-20T15:15:12.418Z,65.70
2019-06-20T15:18:03.768Z,65.80
2019-06-20T15:20:59.004Z,65.60
2019-06-20T15:23:49.578Z,65.20
2019-06-20T15:26:41.740Z,65.40
2019-06-20T15:29:33.495Z,65.30
2019-06-20T15:32:24.943Z,64.70
2019-06-20T15:35:16.469Z,66.40
2019-06-20T15:38:08.345Z,66.00
2019-06-20T15:41:00.033Z,66.30
2019-06-20T15:43:51.802Z,64.90
2019-06-20T15:46:43.228Z,63.80
2019-06-20T15:49:34.801Z,67.80
2019-06-20T15:52:26.333Z,67.40
2019-06-20T15:55:20.866Z,64.80
2019-06-20T15:58:12.275Z,67.40
2019-06-20T16:01:03.911Z,65.60
2019-06-20T16:03:55.445Z,66.20
2019-06-20T16:06:47.231Z,67.30
2019-06-20T16:09:39.731Z,69.00
2019-06-20T16:12:31.349Z,71.00
2019-06-20T16:15:24.220Z,69.00
2019-06-20T16:18:16.181Z,69.50
2019-06-20T16:21:07.692Z,69.90
2019-06-20T16:23:59.080Z,70.10
2019-06-20T16:26:50.752Z,69.30
2019-06-20T16:29:42.474Z,72.90
2019-06-20T16:32:33.853Z,71.80
2019-06-20T16:35:25.171Z,70.50
2019-06-20T16:38:16.457Z,69.70
2019-06-20T16:41:10.122Z,69.10
2019-06-20T16:44:01.511Z,69.70
2019-06-20T16:46:52.980Z,71.70
2019-06-20T16:49:44.671Z,72.90
2019-06-20T16:52:36.270Z,73.00
2019-06-20T16:55:27.506Z,72.60
2019-06-20T16:58:19.156Z,73.20
2019-06-20T17:01:10.757Z,74.20
2019-06-20T17:04:02.291Z,75.10
2019-06-20T17:06:53.877Z,77.50
2019-06-20T17:09:45.087Z,78.30
2019-06-20T17:12:36.341Z,78.50
2019-06-20T17:15:27.718Z,79.40
2019-06-20T17:18:19.007Z,80.00
2019-06-20T17:21:10.295Z,81.10
2019-06-20T17:24:01.803Z,82.50
2019-06-20T17:26:53.942Z,83.50
2019-06-20T17:29:45.594Z,83.00
2019-06-20T17:32:37.187Z,81.30
2019-06-20T17:35:28.893Z,83.10
2019-06-20T17:38:20.340Z,83.90
2019-06-20T17:41:12.524Z,82.70
2019-06-20T17:44:04.044Z,82.40
2019-06-20T17:46:55.544Z,82.80
2019-06-20T17:49:46.882Z,83.30
2019-06-20T17:52:38.215Z,84.00
2019-06-20T17:55:29.484Z,85.10
2019-06-20T17:58:25.049Z,84.90
2019-06-20T18:01:16.552Z,87.10
2019-06-20T18:04:27.084Z,86.50
2019-06-20T18:07:24.063Z,86.30
2019-06-20T18:10:15.552Z,87.30
2019-06-20T18:13:13.266Z,89.10
2019-06-20T18:16:25.652Z,90.00
2019-06-20T18:19:27.815Z,90.00
2019-06-20T18:22:19.161Z,91.20
2019-06-20T18:25:12.011Z,91.80
2019-06-20T18:28:03.588Z,91.60
2019-06-20T18:30:55.621Z,91.20
2019-06-20T18:33:46.936Z,91.10
2019-06-20T18:36:38.491Z,92.40
2019-06-20T18:39:32.545Z,92.70
2019-06-20T18:42:24.545Z,94.00
2019-06-20T18:45:16.194Z,93.70
2019-06-20T18:48:07.744Z,93.90
2019-06-20T18:50:59.054Z,95.10
2019-06-20T18:53:50.800Z,95.40
2019-06-20T18:56:42.078Z,96.60
2019-06-20T18:59:33.351Z,97.10
2019-06-20T19:02:25.938Z,97.00
2019-06-20T19:05:18.082Z,97.90
2019-06-20T19:08:09.805Z,98.40
2019-06-20T19:11:01.173Z,98.50
2019-06-20T19:13:52.542Z,99.70
2019-06-20T19:16:43.776Z,99.90
2019-06-20T19:19:35.118Z,99.90
2019-06-20T19:22:26.809Z,99.90
2019-06-20T19:25:19.986Z,99.90
2019-06-20T19:28:11.291Z,99.90
2019-06-20T19:31:02.852Z,99.90
2019-06-20T19:33:54.125Z,99.90
2019-06-20T19:36:46.148Z,99.90
2019-06-20T19:39:37.501Z,99.90
2019-06-20T19:42:28.993Z,99.90
2019-06-20T19:45:20.796Z,99.90
2019-06-20T19:48:12.091Z,99.90
2019-06-20T19:51:03.796Z,99.90
2019-06-20T19:53:55.973Z,99.90
2019-06-20T19:56:48.238Z,99.90
2019-06-20T19:59:39.659Z,99.90
2019-06-20T20:02:30.977Z,99.90
2019-06-20T20:05:23.944Z,99.90
2019-06-20T20:08:15.280Z,99.90
2019-06-20T20:11:07.541Z,99.90
2019-06-20T20:13:59.152Z,99.90
2019-06-20T20:16:51.110Z,99.90
2019-06-20T20:19:42.602Z,99.90
2019-06-20T20:22:34.208Z,99.90
2019-06-20T20:25:26.167Z,99.90
2019-06-20T20:28:19.012Z,99.90
2019-06-20T20:31:11.664Z,99.90
2019-06-20T20:34:03.366Z,99.90
2019-06-20T20:36:55.086Z,99.90
2019-06-20T20:39:46.664Z,99.90
2019-06-20T20:42:38.261Z,99.90
2019-06-20T20:45:29.698Z,99.90
2019-06-20T20:48:21.366Z,99.90
2019-06-20T20:51:12.982Z,99.90
2019-06-20T20:54:04.520Z,99.90
2019-06-20T20:56:55.884Z,99.90
2019-06-20T20:59:47.518Z,99.90
2019-06-20T21:02:38.983Z,99.90
2019-06-20T21:05:31.763Z,99.90
2019-06-20T21:08:23.949Z,99.90
2019-06-20T21:11:16.520Z,99.90
2019-06-20T21:14:09.194Z,99.90
2019-06-20T21:17:00.498Z,99.90
2019-06-20T21:19:52.176Z,99.90
2019-06-20T21:22:43.686Z,99.90
2019-06-20T21:25:35.573Z,99.90
2019-06-20T21:28:27.296Z,99.90
2019-06-20T21:31:18.932Z,99.90
2019-06-20T21:34:10.529Z,99.90
2019-06-20T21:37:01.920Z,99.90
2019-06-20T21:39:53.277Z,99.90
2019-06-20T21:42:44.787Z,99.90
2019-06-20T21:45:36.153Z,99.90
2019-06-20T21:48:28.879Z,99.90
2019-06-20T21:51:20.334Z,99.90
2019-06-20T21:54:13.547Z,99.90
2019-06-20T21:57:05.114Z,99.90
2019-06-20T21:59:57.162Z,99.90
2019-06-20T22:02:48.739Z,99.90
2019-06-20T22:05:40.562Z,99.90
2019-06-20T22:08:32.282Z,99.90
2019-06-20T22:11:23.672Z,99.90
2019-06-20T22:14:15.286Z,99.90
2019-06-20T22:17:07.041Z,99.90
2019-06-20T22:19:58.574Z,99.90
2019-06-20T22:22:50.012Z,99.90
2019-06-20T22:25:41.553Z,99.90
2019-06-20T22:28:33.035Z,99.90
2019-06-20T22:31:24.990Z,99.90
2019-06-20T22:34:16.860Z,99.90
2019-06-20T22:37:08.388Z,99.90
2019-06-20T22:40:00.269Z,99.90
2019-06-20T22:42:52.113Z,99.90
2019-06-20T22:45:43.722Z,99.90
2019-06-20T22:48:35.364Z,99.90
2019-06-20T22:51:26.966Z,99.90
2019-06-20T22:54:18.636Z,99.90
2019-06-20T22:57:10.015Z,99.90
2019-06-20T23:00:01.595Z,99.90
2019-06-20T23:02:54.109Z,99.90
2019-06-20T23:05:45.541Z,99.90
2019-06-20T23:08:36.880Z,99.90
2019-06-20T23:11:29.002Z,99.90
2019-06-20T23:14:20.673Z,99.90
2019-06-20T23:17:12.034Z,99.90
2019-06-20T23:20:03.271Z,99.90
2019-06-20T23:22:54.834Z,99.90
2019-06-20T23:25:48.620Z,99.90
2019-06-20T23:28:40.377Z,99.90
2019-06-20T23:31:32.041Z,99.90
2019-06-20T23:34:24.370Z,99.90
2019-06-20T23:37:16.210Z,99.90
2019-06-20T23:40:10.309Z,99.90
2019-06-20T23:43:02.352Z,99.90
2019-06-20T23:45:54.045Z,99.90
2019-06-20T23:48:46.002Z,99.90
2019-06-20T23:51:40.797Z,99.90
2019-06-20T23:54:32.447Z,99.90
2019-06-20T23:57:24.073Z,99.90
